createdAt,value
2023-01-09T00:01:59.589Z,0.38
2023-01-09T00:04:26.173Z,1.05
2023-01-09T00:06:56.268Z,0.60
2023-01-09T00:09:24.081Z,0.98
2023-01-09T00:11:51.537Z,1.13
2023-01-09T00:14:19.111Z,0.47
2023-01-09T00:16:45.893Z,1.00
2023-01-09T00:19:12.513Z,1.55
2023-01-09T00:21:39.178Z,2.20
2023-01-09T00:24:06.238Z,1.30
2023-01-09T00:26:33.183Z,1.55
2023-01-09T00:28:59.748Z,1.50
2023-01-09T00:31:26.389Z,0.70
2023-01-09T00:34:00.184Z,4.80
2023-01-09T00:36:27.230Z,1.15
2023-01-09T00:38:53.831Z,1.83
2023-01-09T00:41:34.437Z,1.20
2023-01-09T00:44:06.164Z,0.70
2023-01-09T00:46:37.682Z,0.65
2023-01-09T00:49:07.533Z,0.90
2023-01-09T00:51:34.524Z,1.35
2023-01-09T00:54:03.224Z,4.07
2023-01-09T00:56:29.965Z,0.47
2023-01-09T00:58:56.690Z,2.47
2023-01-09T01:01:23.340Z,1.17
2023-01-09T01:03:49.994Z,0.93
2023-01-09T01:06:35.177Z,0.95
2023-01-09T01:09:01.968Z,1.75
2023-01-09T01:11:28.495Z,1.65
2023-01-09T01:13:55.429Z,1.30
2023-01-09T01:16:22.034Z,1.08
2023-01-09T01:18:48.843Z,1.33
2023-01-09T01:21:15.579Z,1.23
2023-01-09T01:23:43.205Z,1.80
2023-01-09T01:26:15.412Z,1.20
2023-01-09T01:28:42.466Z,2.83
2023-01-09T01:31:15.254Z,1.33
2023-01-09T01:33:41.817Z,2.03
2023-01-09T01:36:09.078Z,2.50
2023-01-09T01:38:36.760Z,1.60
2023-01-09T01:41:04.437Z,0.63
2023-01-09T01:43:51.618Z,3.42
2023-01-09T01:46:19.127Z,2.25
2023-01-09T01:48:48.062Z,1.33
2023-01-09T01:51:18.310Z,1.88
2023-01-09T01:53:49.678Z,0.70
2023-01-09T01:56:28.827Z,0.32
2023-01-09T01:59:07.103Z,2.83
2023-01-09T02:01:34.606Z,2.80
2023-01-09T02:04:02.592Z,2.40
2023-01-09T02:06:30.549Z,2.05
2023-01-09T02:08:57.901Z,2.03
2023-01-09T02:11:24.874Z,4.05
2023-01-09T02:13:51.966Z,3.08
2023-01-09T02:16:33.497Z,1.85
2023-01-09T02:19:37.873Z,2.35
2023-01-09T02:22:16.575Z,2.97
2023-01-09T02:25:28.471Z,1.95
2023-01-09T02:28:33.901Z,1.13
2023-01-09T02:31:09.080Z,3.67
2023-01-09T02:34:03.351Z,4.00
2023-01-09T02:37:02.483Z,5.35
2023-01-09T02:39:47.244Z,2.72
2023-01-09T02:42:19.054Z,2.65
2023-01-09T02:44:45.612Z,2.80
2023-01-09T02:47:15.157Z,5.47
2023-01-09T02:49:46.755Z,4.97
2023-01-09T02:52:35.079Z,6.43
2023-01-09T02:55:01.660Z,2.47
2023-01-09T02:58:05.358Z,4.47
2023-01-09T03:00:41.907Z,2.08
2023-01-09T03:03:17.762Z,3.40
2023-01-09T03:05:51.476Z,6.45
2023-01-09T03:08:30.442Z,2.28
2023-01-09T03:11:04.804Z,5.00
2023-01-09T03:13:42.138Z,7.25
2023-01-09T03:16:11.594Z,4.70
2023-01-09T03:18:39.367Z,7.05
2023-01-09T03:21:08.814Z,9.68
2023-01-09T03:23:51.340Z,6.68
2023-01-09T03:26:18.665Z,7.38
2023-01-09T03:28:46.109Z,11.38
2023-01-09T03:31:13.250Z,7.40
2023-01-09T03:33:40.344Z,9.00
2023-01-09T03:36:07.523Z,8.10
2023-01-09T03:38:34.325Z,3.85
2023-01-09T03:41:01.044Z,6.20
2023-01-09T03:43:28.194Z,5.72
2023-01-09T03:45:55.261Z,11.38
2023-01-09T03:48:21.855Z,4.78
2023-01-09T03:50:52.737Z,3.88
2023-01-09T03:53:21.137Z,10.93
2023-01-09T03:55:49.748Z,8.43
2023-01-09T03:58:17.964Z,6.50
2023-01-09T04:00:46.240Z,7.82
2023-01-09T04:03:13.258Z,10.70
2023-01-09T04:05:39.824Z,6.15
2023-01-09T04:08:06.596Z,12.00
2023-01-09T04:10:33.284Z,15.55
2023-01-09T04:12:59.876Z,13.77
2023-01-09T04:15:26.638Z,12.55
2023-01-09T04:17:53.194Z,11.75
2023-01-09T04:20:19.749Z,33.75
2023-01-09T04:22:46.504Z,15.98
2023-01-09T04:25:13.137Z,16.02
2023-01-09T04:27:39.715Z,23.65
2023-01-09T04:30:07.016Z,19.90
2023-01-09T04:32:33.560Z,12.93
2023-01-09T04:35:00.152Z,10.45
2023-01-09T04:37:26.773Z,15.20
2023-01-09T04:39:55.999Z,13.77
2023-01-09T04:42:23.095Z,18.63
2023-01-09T04:44:53.699Z,24.17
2023-01-09T04:47:21.565Z,21.52
2023-01-09T04:49:48.173Z,17.88
2023-01-09T04:52:14.841Z,18.80
2023-01-09T04:54:41.594Z,22.33
2023-01-09T04:57:08.157Z,15.20
2023-01-09T04:59:35.088Z,14.48
2023-01-09T05:02:01.887Z,16.88
2023-01-09T05:04:28.569Z,18.38
2023-01-09T05:06:55.183Z,15.95
2023-01-09T05:09:22.822Z,16.27
2023-01-09T05:11:50.351Z,15.27
2023-01-09T05:14:17.051Z,18.65
2023-01-09T05:16:43.704Z,22.33
2023-01-09T05:19:10.354Z,14.48
2023-01-09T05:21:37.160Z,15.68
2023-01-09T05:24:03.806Z,13.77
2023-01-09T05:26:30.422Z,13.80
2023-01-09T05:28:56.970Z,14.15
2023-01-09T05:31:25.593Z,14.52
2023-01-09T05:33:53.113Z,14.80
2023-01-09T05:36:20.013Z,15.50
2023-01-09T05:38:46.581Z,20.98
2023-01-09T05:41:13.160Z,18.25
2023-01-09T05:43:39.788Z,15.20
2023-01-09T05:46:06.542Z,18.85
2023-01-09T05:48:33.150Z,17.70
2023-01-09T05:50:59.748Z,21.52
2023-01-09T05:53:26.330Z,14.25
2023-01-09T05:55:52.862Z,21.42
2023-01-09T05:58:19.544Z,19.80
2023-01-09T06:00:46.217Z,17.00
2023-01-09T06:03:12.785Z,17.33
2023-01-09T06:05:39.519Z,16.92
2023-01-09T06:08:06.121Z,14.48
2023-01-09T06:10:32.723Z,19.67
2023-01-09T06:12:59.264Z,16.20
2023-01-09T06:15:25.866Z,16.05
2023-01-09T06:17:52.428Z,16.38
2023-01-09T06:20:19.243Z,9.15
2023-01-09T06:22:45.949Z,14.98
2023-01-09T06:25:13.436Z,16.77
2023-01-09T06:27:40.066Z,19.05
2023-01-09T06:30:07.540Z,14.27
2023-01-09T06:32:34.117Z,13.15
2023-01-09T06:35:00.711Z,15.85
2023-01-09T06:37:27.461Z,18.02
2023-01-09T06:39:54.781Z,13.93
2023-01-09T06:42:22.115Z,15.07
2023-01-09T06:44:48.656Z,17.30
2023-01-09T06:47:15.243Z,10.48
2023-01-09T06:49:41.819Z,19.80
2023-01-09T06:52:08.372Z,22.25
2023-01-09T06:54:35.293Z,15.13
2023-01-09T06:57:02.155Z,11.20
2023-01-09T06:59:28.729Z,22.50
2023-01-09T07:01:55.890Z,21.38
2023-01-09T07:04:23.366Z,16.48
2023-01-09T07:06:50.102Z,20.48
2023-01-09T07:09:16.764Z,21.13
2023-01-09T07:11:43.427Z,19.00
2023-01-09T07:14:09.994Z,15.93
2023-01-09T07:16:36.644Z,13.88
2023-01-09T07:19:03.329Z,18.83
2023-01-09T07:21:32.562Z,28.67
2023-01-09T07:23:59.384Z,16.90
2023-01-09T07:26:25.974Z,22.23
2023-01-09T07:28:52.675Z,18.58
2023-01-09T07:31:19.276Z,14.48
2023-01-09T07:33:45.935Z,21.42
2023-01-09T07:36:12.636Z,21.67
2023-01-09T07:38:39.689Z,14.68
2023-01-09T07:41:06.477Z,9.82
2023-01-09T07:43:33.203Z,13.50
2023-01-09T07:45:59.937Z,16.20
2023-01-09T07:48:26.515Z,16.52
2023-01-09T07:50:53.119Z,17.13
2023-01-09T07:53:19.731Z,20.92
2023-01-09T07:55:46.340Z,14.55
2023-01-09T07:58:13.082Z,21.80
2023-01-09T08:00:39.840Z,12.82
2023-01-09T08:03:06.577Z,18.33
2023-01-09T08:05:33.669Z,12.85
2023-01-09T08:08:01.982Z,9.98
2023-01-09T08:10:28.628Z,13.98
2023-01-09T08:12:55.301Z,11.32
2023-01-09T08:15:21.992Z,14.82
2023-01-09T08:17:49.880Z,18.17
2023-01-09T08:20:17.644Z,16.27
2023-01-09T08:22:50.182Z,12.27
2023-01-09T08:25:18.180Z,9.73
2023-01-09T08:27:45.276Z,16.30
2023-01-09T08:30:12.883Z,11.25
2023-01-09T08:32:39.813Z,13.40
2023-01-09T08:35:07.568Z,13.32
2023-01-09T08:37:34.271Z,11.63
2023-01-09T08:40:00.996Z,10.98
2023-01-09T08:42:46.336Z,12.40
2023-01-09T08:45:48.571Z,14.85
2023-01-09T08:48:15.386Z,11.15
2023-01-09T08:50:42.046Z,17.25
2023-01-09T08:53:08.631Z,15.40
2023-01-09T08:55:35.236Z,11.20
2023-01-09T08:58:02.425Z,12.13
2023-01-09T09:00:28.970Z,14.30
2023-01-09T09:03:00.198Z,7.78
2023-01-09T09:05:28.541Z,13.82
2023-01-09T09:07:56.384Z,15.15
2023-01-09T09:10:25.011Z,8.93
2023-01-09T09:12:53.358Z,6.18
2023-01-09T09:15:24.195Z,7.63
2023-01-09T09:18:03.125Z,9.77
2023-01-09T09:20:35.754Z,7.88
2023-01-09T09:23:02.752Z,8.55
2023-01-09T09:25:29.666Z,10.48
2023-01-09T09:27:56.451Z,7.82
2023-01-09T09:30:23.948Z,6.85
2023-01-09T09:32:50.663Z,12.55
2023-01-09T09:35:18.114Z,7.80
2023-01-09T09:37:56.746Z,4.78
2023-01-09T09:40:50.782Z,7.10
2023-01-09T09:43:51.591Z,8.32
2023-01-09T09:46:21.358Z,7.32
2023-01-09T09:48:52.271Z,6.97
2023-01-09T09:51:28.299Z,8.30
2023-01-09T09:54:00.028Z,5.88
2023-01-09T09:56:29.912Z,8.55
2023-01-09T09:59:02.213Z,4.38
2023-01-09T10:01:44.853Z,6.88
2023-01-09T10:04:16.664Z,14.45
2023-01-09T10:06:52.762Z,9.48
2023-01-09T10:09:31.394Z,11.35
2023-01-09T10:12:12.911Z,7.15
2023-01-09T10:14:39.910Z,8.82
2023-01-09T10:17:32.312Z,11.52
2023-01-09T10:23:02.334Z,5.45
2023-01-09T10:25:40.650Z,16.38
2023-01-09T10:28:31.861Z,9.23
2023-01-09T10:31:01.018Z,11.20
2023-01-09T10:33:36.785Z,8.43
2023-01-09T10:36:30.409Z,5.78
2023-01-09T10:39:04.215Z,8.10
2023-01-09T10:41:48.547Z,8.65
2023-01-09T10:44:26.010Z,8.00
2023-01-09T10:46:55.080Z,9.30
2023-01-09T10:49:23.770Z,10.80
2023-01-09T10:52:11.323Z,11.38
2023-01-09T10:55:02.636Z,8.10
2023-01-09T10:57:44.637Z,8.60
2023-01-09T11:00:21.660Z,9.55
2023-01-09T11:02:49.819Z,9.90
2023-01-09T11:05:32.431Z,10.50
2023-01-09T11:08:08.595Z,11.80
2023-01-09T11:10:54.195Z,10.50
2023-01-09T11:13:43.577Z,10.95
2023-01-09T11:16:24.001Z,11.00
2023-01-09T11:18:57.810Z,9.93
2023-01-09T11:21:28.246Z,13.60
2023-01-09T11:23:56.280Z,11.50
2023-01-09T11:26:27.936Z,11.68
2023-01-09T11:29:16.825Z,14.80
2023-01-09T11:32:02.790Z,13.30
2023-01-09T11:34:32.700Z,6.40
2023-01-09T11:37:11.917Z,17.50
2023-01-09T11:39:42.018Z,15.52
2023-01-09T11:42:47.591Z,9.73
2023-01-09T11:45:14.194Z,9.10
2023-01-09T11:47:41.252Z,14.73
2023-01-09T11:50:25.602Z,7.32
2023-01-09T11:53:13.791Z,7.32
2023-01-09T11:55:42.908Z,9.95
2023-01-09T11:58:18.636Z,7.53
2023-01-09T12:01:03.401Z,7.35
2023-01-09T12:04:05.687Z,8.20
2023-01-09T12:07:08.693Z,8.27
2023-01-09T12:10:08.858Z,7.40
2023-01-09T12:12:57.315Z,10.65
2023-01-09T12:15:46.876Z,6.78
2023-01-09T12:18:32.567Z,10.18
2023-01-09T12:21:14.179Z,5.80
2023-01-09T12:23:56.117Z,8.80
2023-01-09T12:26:32.629Z,9.88
2023-01-09T12:29:17.936Z,6.25
2023-01-09T12:31:53.439Z,6.95
2023-01-09T12:34:44.379Z,11.68
2023-01-09T12:37:23.254Z,11.23
2023-01-09T12:40:10.387Z,8.68
2023-01-09T12:42:45.758Z,8.63
2023-01-09T12:45:50.997Z,9.48
2023-01-09T12:48:38.948Z,7.88
2023-01-09T12:51:05.454Z,6.35
2023-01-09T12:53:41.024Z,9.60
2023-01-09T12:56:15.293Z,10.23
2023-01-09T12:58:52.799Z,8.38
2023-01-09T13:01:39.179Z,7.43
2023-01-09T13:04:05.733Z,5.85
2023-01-09T13:06:35.529Z,5.70
2023-01-09T13:09:28.474Z,6.65
2023-01-09T13:12:03.083Z,7.07
2023-01-09T13:14:47.553Z,5.22
2023-01-09T13:17:26.423Z,6.88
2023-01-09T13:19:54.155Z,6.13
2023-01-09T13:22:25.503Z,5.72
2023-01-09T13:25:11.360Z,7.82
2023-01-09T13:27:41.863Z,3.72
2023-01-09T13:30:21.093Z,6.15
2023-01-09T13:32:57.171Z,9.50
2023-01-09T13:35:23.897Z,7.57
2023-01-09T13:37:53.300Z,6.45
2023-01-09T13:40:19.871Z,7.55
2023-01-09T13:43:16.903Z,5.30
2023-01-09T13:45:44.862Z,4.03
2023-01-09T13:48:12.106Z,4.15
2023-01-09T13:50:40.426Z,6.72
2023-01-09T13:53:25.324Z,4.63
2023-01-09T13:55:58.456Z,3.60
2023-01-09T13:58:29.578Z,5.30
2023-01-09T14:01:05.671Z,5.95
2023-01-09T14:03:37.631Z,2.33
2023-01-09T14:06:12.198Z,1.17
2023-01-09T14:08:42.119Z,2.60
2023-01-09T14:11:09.358Z,3.20
2023-01-09T14:13:45.772Z,2.58
2023-01-09T14:16:20.447Z,6.88
2023-01-09T14:18:52.188Z,3.75
2023-01-09T14:21:19.404Z,4.57
2023-01-09T14:24:06.745Z,3.47
2023-01-09T14:26:42.910Z,1.63
2023-01-09T14:29:31.012Z,3.20
2023-01-09T14:32:22.484Z,2.50
2023-01-09T14:35:05.939Z,1.70
2023-01-09T14:37:35.997Z,2.40
2023-01-09T14:40:06.810Z,2.58
2023-01-09T14:42:35.564Z,2.83
2023-01-09T14:45:06.371Z,2.22
2023-01-09T14:47:47.061Z,1.80
2023-01-09T14:50:29.877Z,4.05
2023-01-09T14:53:08.237Z,2.72
2023-01-09T14:55:51.070Z,2.30
2023-01-09T14:58:34.805Z,3.38
2023-01-09T15:01:01.517Z,0.65
2023-01-09T15:03:39.627Z,2.67
2023-01-09T15:06:10.542Z,0.98
2023-01-09T15:08:37.329Z,0.98
2023-01-09T15:11:03.959Z,2.50
2023-01-09T15:13:34.923Z,1.55
2023-01-09T15:16:05.671Z,2.75
2023-01-09T15:18:40.718Z,2.58
2023-01-09T15:21:07.503Z,2.90
2023-01-09T15:23:34.173Z,3.72
2023-01-09T15:26:29.607Z,3.72
2023-01-09T15:29:17.900Z,2.33
2023-01-09T15:31:47.268Z,2.22
2023-01-09T15:34:23.297Z,3.55
2023-01-09T15:36:52.815Z,3.38
2023-01-09T15:39:31.392Z,2.90
2023-01-09T15:42:18.757Z,2.83
2023-01-09T15:44:48.579Z,4.57
2023-01-09T15:47:24.115Z,7.38
2023-01-09T15:49:51.145Z,3.42
2023-01-09T15:52:18.901Z,3.22
2023-01-09T15:54:49.264Z,4.82
2023-01-09T15:57:25.064Z,6.10
2023-01-09T15:59:52.609Z,3.25
2023-01-09T16:02:39.777Z,7.20
2023-01-09T16:05:09.242Z,5.13
2023-01-09T16:07:35.838Z,7.68
2023-01-09T16:10:02.637Z,7.22
2023-01-09T16:12:29.318Z,11.70
2023-01-09T16:14:59.446Z,6.78
2023-01-09T16:17:27.172Z,9.00
2023-01-09T16:19:58.217Z,5.90
2023-01-09T16:22:33.084Z,11.37
2023-01-09T16:25:02.626Z,1.90
2023-01-09T16:27:33.376Z,4.95
2023-01-09T16:30:08.595Z,9.77
2023-01-09T16:32:46.447Z,3.55
2023-01-09T16:35:19.500Z,5.78
2023-01-09T16:37:46.875Z,7.20
2023-01-09T16:40:22.460Z,8.57
2023-01-09T16:43:00.683Z,5.20
2023-01-09T16:45:34.622Z,7.18
2023-01-09T16:48:03.834Z,6.13
2023-01-09T16:50:30.450Z,6.13
2023-01-09T16:52:57.318Z,8.13
2023-01-09T16:55:24.294Z,5.53
2023-01-09T16:57:51.118Z,5.13
2023-01-09T17:00:20.467Z,8.13
2023-01-09T17:02:48.275Z,5.18
2023-01-09T17:05:15.044Z,6.50
2023-01-09T17:07:41.776Z,8.10
2023-01-09T17:10:20.030Z,9.15
2023-01-09T17:12:46.615Z,6.57
2023-01-09T17:15:13.347Z,7.07
2023-01-09T17:17:39.888Z,6.55
2023-01-09T17:20:15.334Z,5.20
2023-01-09T17:22:41.997Z,7.38
2023-01-09T17:25:32.163Z,3.42
2023-01-09T17:28:17.633Z,4.22
2023-01-09T17:30:44.173Z,3.88
2023-01-09T17:33:16.074Z,7.63
2023-01-09T17:35:43.239Z,6.22
2023-01-09T17:38:15.119Z,3.17
2023-01-09T17:40:42.913Z,5.07
2023-01-09T17:43:09.744Z,4.90
2023-01-09T17:45:38.044Z,6.85
2023-01-09T17:48:04.959Z,7.35
2023-01-09T17:50:34.691Z,5.63
2023-01-09T17:53:01.279Z,6.20
2023-01-09T17:55:27.866Z,5.05
2023-01-09T17:57:54.464Z,5.65
2023-01-09T18:00:29.054Z,4.75
2023-01-09T18:02:57.153Z,6.13
2023-01-09T18:05:25.064Z,3.08
2023-01-09T18:07:51.762Z,3.25
2023-01-09T18:10:23.280Z,2.40
2023-01-09T18:12:51.434Z,1.65
2023-01-09T18:15:18.525Z,1.95
2023-01-09T18:17:45.220Z,0.73
2023-01-09T18:20:12.467Z,2.03
2023-01-09T18:22:39.066Z,0.60
2023-01-09T18:25:06.141Z,3.47
2023-01-09T18:27:35.058Z,2.25
2023-01-09T18:30:03.683Z,3.65
2023-01-09T18:32:31.651Z,1.67
2023-01-09T18:34:58.246Z,3.15
2023-01-09T18:37:24.807Z,0.73
2023-01-09T18:39:51.353Z,3.67
2023-01-09T18:42:17.960Z,3.22
2023-01-09T18:44:44.581Z,0.65
2023-01-09T18:47:11.280Z,1.05
2023-01-09T18:49:37.999Z,3.05
2023-01-09T18:52:07.375Z,1.40
2023-01-09T18:54:34.223Z,1.50
2023-01-09T18:57:00.828Z,2.00
2023-01-09T18:59:27.364Z,1.92
2023-01-09T19:01:53.914Z,2.00
2023-01-09T19:04:20.613Z,2.42
2023-01-09T19:06:47.209Z,2.17
2023-01-09T19:09:13.849Z,3.03
2023-01-09T19:11:44.267Z,2.05
2023-01-09T19:14:11.505Z,1.92
2023-01-09T19:16:38.071Z,2.15
2023-01-09T19:19:06.567Z,4.82
2023-01-09T19:21:33.362Z,2.80
2023-01-09T19:24:00.041Z,4.28
2023-01-09T19:26:28.364Z,2.90
2023-01-09T19:28:57.411Z,4.40
2023-01-09T19:31:25.700Z,5.50
2023-01-09T19:33:52.721Z,4.80
2023-01-09T19:36:19.783Z,3.25
2023-01-09T19:38:47.058Z,1.77
2023-01-09T19:41:19.427Z,5.47
2023-01-09T19:43:47.170Z,1.83
2023-01-09T19:46:16.864Z,2.80
2023-01-09T19:48:43.428Z,5.45
2023-01-09T19:51:11.594Z,3.00
2023-01-09T19:53:38.645Z,3.80
2023-01-09T19:56:13.721Z,2.75
2023-01-09T19:58:42.335Z,5.03
2023-01-09T20:01:18.118Z,3.22
2023-01-09T20:03:46.697Z,5.55
2023-01-09T20:06:17.618Z,4.78
2023-01-09T20:08:45.620Z,3.33
2023-01-09T20:11:12.473Z,4.10
2023-01-09T20:13:39.128Z,3.05
2023-01-09T20:16:06.752Z,5.20
2023-01-09T20:18:34.631Z,2.92
2023-01-09T20:21:01.900Z,6.93
2023-01-09T20:23:28.774Z,4.57
2023-01-09T20:25:57.420Z,6.85
2023-01-09T20:28:25.321Z,6.53
2023-01-09T20:30:53.534Z,5.28
2023-01-09T20:33:21.363Z,7.53
2023-01-09T20:35:48.292Z,5.97
2023-01-09T20:38:14.920Z,4.57
2023-01-09T20:40:44.014Z,7.47
2023-01-09T20:43:12.556Z,7.60
2023-01-09T20:45:40.163Z,5.85
2023-01-09T20:48:07.172Z,7.78
2023-01-09T20:50:33.862Z,8.38
2023-01-09T20:53:00.529Z,6.72
2023-01-09T20:55:27.060Z,4.13
2023-01-09T20:57:53.638Z,11.23
2023-01-09T21:00:20.883Z,7.93
2023-01-09T21:02:47.656Z,5.70
2023-01-09T21:05:14.328Z,5.95
2023-01-09T21:07:40.935Z,6.78
2023-01-09T21:10:07.950Z,6.47
2023-01-09T21:12:37.748Z,9.05
2023-01-09T21:15:08.347Z,9.27
2023-01-09T21:17:39.566Z,7.25
2023-01-09T21:20:09.938Z,6.32
2023-01-09T21:22:37.078Z,7.35
2023-01-09T21:25:04.736Z,11.13
2023-01-09T21:27:35.769Z,7.20
2023-01-09T21:30:04.158Z,8.90
2023-01-09T21:32:32.866Z,5.72
2023-01-09T21:35:04.230Z,9.88
2023-01-09T21:37:33.554Z,5.20
2023-01-09T21:40:01.133Z,7.32
2023-01-09T21:42:46.276Z,5.93
2023-01-09T21:45:36.200Z,3.55
2023-01-09T21:48:04.606Z,5.38
2023-01-09T21:50:31.307Z,6.15
2023-01-09T21:52:57.888Z,11.27
2023-01-09T21:55:24.487Z,4.95
2023-01-09T21:57:55.896Z,6.78
2023-01-09T22:00:23.900Z,5.40
2023-01-09T22:02:51.429Z,4.65
2023-01-09T22:05:17.978Z,3.80
2023-01-09T22:07:44.579Z,5.20
2023-01-09T22:10:11.843Z,5.22
2023-01-09T22:12:38.712Z,4.00
2023-01-09T22:15:06.168Z,4.50
2023-01-09T22:17:32.875Z,4.88
2023-01-09T22:19:59.435Z,5.72
2023-01-09T22:22:26.018Z,5.50
2023-01-09T22:24:53.375Z,3.90
2023-01-09T22:27:19.965Z,6.32
2023-01-09T22:29:46.575Z,7.75
2023-01-09T22:32:13.248Z,9.10
2023-01-09T22:34:39.778Z,4.75
2023-01-09T22:37:06.469Z,11.68
2023-01-09T22:39:33.139Z,5.32
2023-01-09T22:41:59.771Z,9.88
2023-01-09T22:44:26.429Z,9.57
2023-01-09T22:46:53.110Z,12.82
2023-01-09T22:49:19.660Z,14.43
2023-01-09T22:51:46.195Z,7.95
2023-01-09T22:54:12.800Z,13.63
2023-01-09T22:56:39.352Z,18.13
2023-01-09T22:59:05.953Z,11.93
2023-01-09T23:01:32.682Z,13.35
2023-01-09T23:03:59.303Z,17.45
2023-01-09T23:06:25.982Z,21.92
2023-01-09T23:08:53.269Z,18.80
2023-01-09T23:11:47.396Z,20.27
2023-01-09T23:14:14.055Z,22.25
2023-01-09T23:16:40.803Z,19.10
2023-01-09T23:19:09.903Z,22.70
2023-01-09T23:21:37.100Z,20.00
2023-01-09T23:24:04.340Z,24.13
2023-01-09T23:26:30.962Z,15.20
2023-01-09T23:28:57.530Z,21.50
2023-01-09T23:31:24.162Z,17.52
2023-01-09T23:33:50.884Z,25.77
2023-01-09T23:36:17.484Z,32.53
2023-01-09T23:38:44.792Z,25.60
2023-01-09T23:41:11.376Z,23.05
2023-01-09T23:43:38.066Z,24.85
2023-01-09T23:46:04.787Z,26.27
2023-01-09T23:48:31.475Z,12.55
2023-01-09T23:50:58.035Z,24.25
2023-01-09T23:53:24.649Z,21.90
2023-01-09T23:55:55.176Z,31.02
2023-01-09T23:58:21.969Z,29.77
